»·PEaware :: XACAM KSAN-KOXR

XACAM :: KSAN-KOXR

FLIGHT INFORMATION

Flight Status: Arrived
Operator: Unknown
More flights by this operator :: More flights under this callsign
Pilot: Rafael C. (24230)
Aircraft: BOEING 727-100
(B721)
More flights by this aircraft type
Origin: KSAN San Diego Intl-Lindbergh
United States
Destination: KOXR Oxnard
United States
More flights between these airports :: More routes between these airports
Route: +PEBLE6 SXC V208 VTU
File this flight plan on PilotEdge
Remarks: Tec Route SANP32
Altitude:
(Current/Filed)
10,000ft
Speed:
(Current/Filed)
250kts
Departed: 12-Oct-19 09:17 AM
Arrived: 12-Oct-19 10:01 AM
Distance/Time
Traveled:
134nm/0:43
Distance/Time
To Go:
Arrived

Flight Plot

Page will automatically refresh every two minutes.


Map Options




Map Legend


Flown Route
Filed Route
Departure Airport
Arrival Airport
Navaid (VOR, NDB)
Fix

Horizontal Profiles

Position Reports

Time Latitude Longitude Heading Altitude Ground
Speed
12-Oct-19 08:44 32.733222 -117.196890 134 25ft 0kts
12-Oct-19 08:45 32.733222 -117.196890 134 25ft 0kts
12-Oct-19 08:46 32.733222 -117.196890 134 25ft 0kts
12-Oct-19 08:47 32.733222 -117.196890 134 25ft 0kts
12-Oct-19 08:47 32.733222 -117.196890 134 25ft 0kts
12-Oct-19 08:49 32.733222 -117.196890 134 25ft 0kts
12-Oct-19 08:50 32.733222 -117.196890 134 25ft 0kts
12-Oct-19 08:50 32.733222 -117.196890 134 25ft 0kts
12-Oct-19 08:52 32.733222 -117.196890 134 25ft 0kts
12-Oct-19 08:53 32.733222 -117.196890 134 25ft 0kts
12-Oct-19 08:53 32.733222 -117.196890 134 25ft 0kts
12-Oct-19 08:54 32.733222 -117.196890 134 25ft 0kts
12-Oct-19 08:56 32.733222 -117.196890 134 25ft 0kts
12-Oct-19 08:56 32.733222 -117.196890 134 25ft 0kts
12-Oct-19 08:57 32.733222 -117.196890 134 25ft 0kts
12-Oct-19 08:58 32.733222 -117.196890 134 25ft 0kts
12-Oct-19 08:59 32.733222 -117.196890 134 25ft 0kts
12-Oct-19 09:00 32.733222 -117.196890 134 25ft 0kts
12-Oct-19 09:01 32.733222 -117.196890 134 25ft 0kts
12-Oct-19 09:02 32.733222 -117.196890 134 25ft 0kts
12-Oct-19 09:03 32.733222 -117.196890 134 25ft 0kts
12-Oct-19 09:04 32.733222 -117.196890 134 25ft 0kts
12-Oct-19 09:05 32.733222 -117.196890 134 25ft 0kts
12-Oct-19 09:06 32.733222 -117.196890 134 25ft 0kts
12-Oct-19 09:07 32.733222 -117.196890 134 25ft 0kts
12-Oct-19 09:08 32.733222 -117.196890 134 25ft 0kts
12-Oct-19 09:09 32.733222 -117.196890 134 25ft 0kts
12-Oct-19 09:10 32.733315 -117.196976 97 25ft 1kts
12-Oct-19 09:11 32.732937 -117.191397 107 25ft 25kts
12-Oct-19 09:12 32.730755 -117.182341 106 23ft 30kts
12-Oct-19 09:13 32.729521 -117.176676 70 28ft 0kts
12-Oct-19 09:14 32.729521 -117.176676 70 28ft 0kts
12-Oct-19 09:15 32.730062 -117.175678 327 30ft 4kts
12-Oct-19 09:16 32.738698 -117.208464 295 1645ft 192kts
12-Oct-19 09:17 32.774505 -117.272641 307 6090ft 263kts
12-Oct-19 09:18 32.819966 -117.347755 306 9667ft 290kts
12-Oct-19 09:19 32.868990 -117.425148 305 10004ft 284kts
12-Oct-19 09:20 32.924061 -117.489406 328 9996ft 289kts
12-Oct-19 09:21 32.991879 -117.543627 304 10000ft 289kts
12-Oct-19 09:22 33.040417 -117.620435 306 10000ft 295kts
12-Oct-19 09:23 33.093036 -117.697450 308 10000ft 298kts
12-Oct-19 09:24 33.146424 -117.773804 308 10000ft 299kts
12-Oct-19 09:25 33.196666 -117.853166 293 10001ft 298kts
12-Oct-19 09:26 33.220763 -117.947312 284 10015ft 295kts
12-Oct-19 09:27 33.245972 -118.040607 289 10030ft 295kts
12-Oct-19 09:28 33.277903 -118.131253 293 10037ft 294kts
12-Oct-19 09:29 33.310320 -118.221261 291 10036ft 294kts
12-Oct-19 09:30 33.340042 -118.312409 290 10036ft 294kts
12-Oct-19 09:31 33.369561 -118.404032 290 10036ft 294kts
12-Oct-19 09:32 33.421863 -118.471024 323 9992ft 289kts
12-Oct-19 09:33 33.464647 -118.548319 311 9994ft 282kts
12-Oct-19 09:34 33.517761 -118.620319 310 9984ft 293kts
12-Oct-19 09:35 33.570716 -118.694865 309 9971ft 302kts
12-Oct-19 09:36 33.624252 -118.771211 309 9962ft 307kts
12-Oct-19 09:37 33.679351 -118.849896 309 9963ft 297kts
12-Oct-19 09:38 33.731992 -118.925257 309 9967ft 291kts
12-Oct-19 09:39 33.783576 -118.998999 310 9970ft 285kts
12-Oct-19 09:40 33.856180 -119.026018 354 9797ft 276kts
12-Oct-19 09:41 33.931008 -119.032699 357 9054ft 269kts
12-Oct-19 09:42 33.999147 -119.003688 31 8039ft 263kts
12-Oct-19 09:43 34.061051 -118.958815 31 6876ft 257kts
12-Oct-19 09:44 34.121775 -118.914554 31 5734ft 252kts
12-Oct-19 09:45 34.181154 -118.871078 31 4627ft 247kts
12-Oct-19 09:46 34.237279 -118.829615 31 4379ft 227kts
12-Oct-19 09:47 34.291517 -118.789502 31 4404ft 231kts
12-Oct-19 09:48 34.347480 -118.747988 31 4402ft 239kts
12-Oct-19 09:49 34.350852 -118.685470 156 4398ft 239kts
12-Oct-19 09:50 34.292371 -118.709641 211 4398ft 226kts
12-Oct-19 09:51 34.244617 -118.746465 211 4391ft 192kts
12-Oct-19 09:52 34.211614 -118.796892 241 4294ft 194kts
12-Oct-19 09:53 34.199024 -118.859611 265 3759ft 195kts
12-Oct-19 09:54 34.197124 -118.924648 270 3642ft 194kts
12-Oct-19 09:55 34.198684 -118.991750 272 3497ft 207kts
12-Oct-19 09:56 34.199836 -119.059031 270 2361ft 176kts
12-Oct-19 09:57 34.200183 -119.111287 270 1492ft 132kts
12-Oct-19 09:58 34.200169 -119.154604 269 758ft 122kts
12-Oct-19 09:59 34.200708 -119.196022 270 135ft 119kts
12-Oct-19 10:00 34.200808 -119.216686 245 41ft 7kts
12-Oct-19 10:01 34.200401 -119.216946 179 41ft 0kts
12-Oct-19 10:02 34.199450 -119.215148 97 42ft 21kts
12-Oct-19 10:03 34.199420 -119.213992 91 42ft 0kts
12-Oct-19 10:04 34.199420 -119.213992 91 42ft 0kts
12-Oct-19 10:05 34.199420 -119.213992 91 42ft 0kts
12-Oct-19 10:06 34.199420 -119.213992 91 42ft 0kts
12-Oct-19 10:07 34.199420 -119.213992 91 42ft 0kts
12-Oct-19 10:08 34.199420 -119.213992 91 42ft 0kts
12-Oct-19 10:09 34.199420 -119.213992 91 42ft 0kts

Navigation Log

Ident Type
Flight plan parsing failed, navigation log unavailable